sensor_id;sensor_type;location;lat;lon;timestamp;P1;durP1;ratioP1;P2;durP2;ratioP2
75687;SDS011;64300;45.034;38.910;2022-12-29T00:02:10;10.45;;;4.15;;
75687;SDS011;64300;45.034;38.910;2022-12-29T00:04:37;14.52;;;4.97;;
75687;SDS011;64300;45.034;38.910;2022-12-29T00:07:03;10.52;;;4.10;;
75687;SDS011;64300;45.034;38.910;2022-12-29T00:09:30;9.98;;;4.47;;
75687;SDS011;64300;45.034;38.910;2022-12-29T00:11:56;14.13;;;5.13;;
75687;SDS011;64300;45.034;38.910;2022-12-29T00:14:23;10.68;;;4.40;;
75687;SDS011;64300;45.034;38.910;2022-12-29T00:17:07;14.60;;;4.28;;
75687;SDS011;64300;45.034;38.910;2022-12-29T00:19:33;10.40;;;3.58;;
75687;SDS011;64300;45.034;38.910;2022-12-29T00:22:17;8.32;;;3.78;;
75687;SDS011;64300;45.034;38.910;2022-12-29T00:25:02;9.85;;;4.05;;
75687;SDS011;64300;45.034;38.910;2022-12-29T00:27:47;7.35;;;3.58;;
75687;SDS011;64300;45.034;38.910;2022-12-29T00:30:32;6.95;;;3.42;;
75687;SDS011;64300;45.034;38.910;2022-12-29T00:33:17;12.45;;;3.88;;
75687;SDS011;64300;45.034;38.910;2022-12-29T00:36:11;10.27;;;4.10;;
75687;SDS011;64300;45.034;38.910;2022-12-29T00:38:39;9.35;;;4.22;;
75687;SDS011;64300;45.034;38.910;2022-12-29T00:41:25;11.10;;;4.07;;
75687;SDS011;64300;45.034;38.910;2022-12-29T00:44:11;16.88;;;4.47;;
75687;SDS011;64300;45.034;38.910;2022-12-29T00:46:39;9.93;;;3.92;;
75687;SDS011;64300;45.034;38.910;2022-12-29T00:49:07;11.93;;;4.80;;
75687;SDS011;64300;45.034;38.910;2022-12-29T00:51:53;11.82;;;4.97;;
75687;SDS011;64300;45.034;38.910;2022-12-29T00:54:21;11.32;;;4.53;;
75687;SDS011;64300;45.034;38.910;2022-12-29T00:59:15;9.30;;;4.40;;
75687;SDS011;64300;45.034;38.910;2022-12-29T01:01:42;8.88;;;4.38;;
75687;SDS011;64300;45.034;38.910;2022-12-29T01:04:08;10.73;;;4.22;;
75687;SDS011;64300;45.034;38.910;2022-12-29T01:06:36;12.90;;;5.03;;
75687;SDS011;64300;45.034;38.910;2022-12-29T01:09:04;13.25;;;4.90;;
75687;SDS011;64300;45.034;38.910;2022-12-29T01:11:49;11.73;;;4.65;;
75687;SDS011;64300;45.034;38.910;2022-12-29T01:14:15;15.45;;;4.88;;
75687;SDS011;64300;45.034;38.910;2022-12-29T01:16:42;11.65;;;4.85;;
75687;SDS011;64300;45.034;38.910;2022-12-29T01:19:08;15.10;;;4.93;;
75687;SDS011;64300;45.034;38.910;2022-12-29T01:21:35;9.13;;;4.32;;
75687;SDS011;64300;45.034;38.910;2022-12-29T01:24:01;14.10;;;4.85;;
75687;SDS011;64300;45.034;38.910;2022-12-29T01:26:30;15.13;;;5.25;;
75687;SDS011;64300;45.034;38.910;2022-12-29T01:28:55;18.60;;;5.50;;
75687;SDS011;64300;45.034;38.910;2022-12-29T01:31:21;10.73;;;4.97;;
75687;SDS011;64300;45.034;38.910;2022-12-29T01:33:47;11.48;;;4.72;;
75687;SDS011;64300;45.034;38.910;2022-12-29T01:36:14;11.60;;;5.47;;
75687;SDS011;64300;45.034;38.910;2022-12-29T01:38:42;11.88;;;5.50;;
75687;SDS011;64300;45.034;38.910;2022-12-29T01:41:09;11.48;;;4.05;;
75687;SDS011;64300;45.034;38.910;2022-12-29T01:43:47;11.48;;;5.30;;
75687;SDS011;64300;45.034;38.910;2022-12-29T01:48:47;9.30;;;4.78;;
75687;SDS011;64300;45.034;38.910;2022-12-29T01:51:14;18.52;;;5.63;;
75687;SDS011;64300;45.034;38.910;2022-12-29T01:53:41;17.92;;;4.90;;
75687;SDS011;64300;45.034;38.910;2022-12-29T01:56:10;15.80;;;5.72;;
75687;SDS011;64300;45.034;38.910;2022-12-29T01:58:40;15.73;;;5.10;;
75687;SDS011;64300;45.034;38.910;2022-12-29T02:01:10;13.63;;;5.20;;
75687;SDS011;64300;45.034;38.910;2022-12-29T02:06:04;8.25;;;4.15;;
75687;SDS011;64300;45.034;38.910;2022-12-29T02:08:46;8.10;;;4.00;;
75687;SDS011;64300;45.034;38.910;2022-12-29T02:11:12;8.77;;;4.40;;
75687;SDS011;64300;45.034;38.910;2022-12-29T02:13:39;9.95;;;4.78;;
75687;SDS011;64300;45.034;38.910;2022-12-29T02:24:08;12.65;;;6.00;;
75687;SDS011;64300;45.034;38.910;2022-12-29T02:29:46;14.43;;;5.50;;
75687;SDS011;64300;45.034;38.910;2022-12-29T02:32:35;12.60;;;4.85;;
75687;SDS011;64300;45.034;38.910;2022-12-29T02:35:14;9.52;;;4.63;;
75687;SDS011;64300;45.034;38.910;2022-12-29T02:40:48;11.20;;;4.80;;
75687;SDS011;64300;45.034;38.910;2022-12-29T02:43:25;12.18;;;5.15;;
75687;SDS011;64300;45.034;38.910;2022-12-29T02:52:14;12.32;;;4.57;;
75687;SDS011;64300;45.034;38.910;2022-12-29T02:54:43;14.70;;;5.70;;
75687;SDS011;64300;45.034;38.910;2022-12-29T02:57:14;13.32;;;5.50;;
75687;SDS011;64300;45.034;38.910;2022-12-29T02:59:51;11.77;;;5.30;;
75687;SDS011;64300;45.034;38.910;2022-12-29T03:07:27;16.40;;;5.65;;
75687;SDS011;64300;45.034;38.910;2022-12-29T03:13:02;10.40;;;4.82;;
75687;SDS011;64300;45.034;38.910;2022-12-29T03:18:50;13.68;;;4.55;;
75687;SDS011;64300;45.034;38.910;2022-12-29T03:21:31;9.18;;;4.97;;
75687;SDS011;64300;45.034;38.910;2022-12-29T03:24:29;9.88;;;4.70;;
75687;SDS011;64300;45.034;38.910;2022-12-29T03:27:03;10.05;;;4.03;;
75687;SDS011;64300;45.034;38.910;2022-12-29T03:32:58;11.70;;;4.85;;
75687;SDS011;64300;45.034;38.910;2022-12-29T03:35:30;7.18;;;3.35;;
75687;SDS011;64300;45.034;38.910;2022-12-29T03:40:58;17.05;;;5.20;;
75687;SDS011;64300;45.034;38.910;2022-12-29T03:43:29;13.02;;;4.97;;
75687;SDS011;64300;45.034;38.910;2022-12-29T03:45:55;7.85;;;4.25;;
75687;SDS011;64300;45.034;38.910;2022-12-29T03:48:21;12.38;;;4.82;;
75687;SDS011;64300;45.034;38.910;2022-12-29T03:50:49;10.48;;;4.45;;
75687;SDS011;64300;45.034;38.910;2022-12-29T03:53:16;15.27;;;4.88;;
75687;SDS011;64300;45.034;38.910;2022-12-29T03:55:42;13.75;;;5.13;;
75687;SDS011;64300;45.034;38.910;2022-12-29T04:01:16;11.85;;;5.10;;
75687;SDS011;64300;45.034;38.910;2022-12-29T04:03:42;12.40;;;5.18;;
75687;SDS011;64300;45.034;38.910;2022-12-29T04:06:09;12.93;;;6.05;;
75687;SDS011;64300;45.034;38.910;2022-12-29T04:08:42;12.88;;;5.00;;
75687;SDS011;64300;45.034;38.910;2022-12-29T04:11:08;16.70;;;5.20;;
75687;SDS011;64300;45.034;38.910;2022-12-29T04:13:34;14.52;;;6.03;;
75687;SDS011;64300;45.034;38.910;2022-12-29T04:16:00;13.30;;;5.72;;
75687;SDS011;64300;45.034;38.910;2022-12-29T04:18:26;14.80;;;6.18;;
75687;SDS011;64300;45.034;38.910;2022-12-29T04:20:52;15.20;;;6.35;;
75687;SDS011;64300;45.034;38.910;2022-12-29T04:23:30;14.70;;;6.25;;
75687;SDS011;64300;45.034;38.910;2022-12-29T04:25:57;14.48;;;6.70;;
75687;SDS011;64300;45.034;38.910;2022-12-29T04:28:25;12.55;;;5.70;;
75687;SDS011;64300;45.034;38.910;2022-12-29T04:31:04;18.88;;;6.15;;
75687;SDS011;64300;45.034;38.910;2022-12-29T04:33:36;15.80;;;6.75;;
75687;SDS011;64300;45.034;38.910;2022-12-29T04:36:02;12.20;;;5.63;;
75687;SDS011;64300;45.034;38.910;2022-12-29T04:38:29;18.17;;;5.53;;
75687;SDS011;64300;45.034;38.910;2022-12-29T04:40:58;10.57;;;5.13;;
75687;SDS011;64300;45.034;38.910;2022-12-29T04:43:26;11.65;;;5.07;;
75687;SDS011;64300;45.034;38.910;2022-12-29T04:46:13;18.05;;;5.18;;
75687;SDS011;64300;45.034;38.910;2022-12-29T04:48:48;15.35;;;5.70;;
75687;SDS011;64300;45.034;38.910;2022-12-29T04:51:26;11.45;;;4.53;;
75687;SDS011;64300;45.034;38.910;2022-12-29T04:53:52;12.10;;;5.53;;
75687;SDS011;64300;45.034;38.910;2022-12-29T04:56:18;14.50;;;5.95;;
75687;SDS011;64300;45.034;38.910;2022-12-29T04:58:44;14.35;;;5.57;;
75687;SDS011;64300;45.034;38.910;2022-12-29T05:01:10;16.77;;;6.00;;
75687;SDS011;64300;45.034;38.910;2022-12-29T05:03:36;15.95;;;6.57;;
75687;SDS011;64300;45.034;38.910;2022-12-29T05:06:01;13.57;;;5.05;;
75687;SDS011;64300;45.034;38.910;2022-12-29T05:08:28;16.73;;;7.65;;
75687;SDS011;64300;45.034;38.910;2022-12-29T05:10:56;19.80;;;6.13;;
75687;SDS011;64300;45.034;38.910;2022-12-29T05:13:22;17.98;;;6.32;;
75687;SDS011;64300;45.034;38.910;2022-12-29T05:15:52;13.50;;;5.55;;
75687;SDS011;64300;45.034;38.910;2022-12-29T05:18:19;15.23;;;6.22;;
75687;SDS011;64300;45.034;38.910;2022-12-29T05:20:45;14.20;;;6.57;;
75687;SDS011;64300;45.034;38.910;2022-12-29T05:23:13;15.73;;;6.45;;
75687;SDS011;64300;45.034;38.910;2022-12-29T05:25:40;14.23;;;6.40;;
75687;SDS011;64300;45.034;38.910;2022-12-29T05:28:29;13.73;;;6.00;;
75687;SDS011;64300;45.034;38.910;2022-12-29T05:31:04;15.95;;;6.97;;
75687;SDS011;64300;45.034;38.910;2022-12-29T05:33:31;19.92;;;7.38;;
75687;SDS011;64300;45.034;38.910;2022-12-29T05:35:57;14.45;;;6.40;;
75687;SDS011;64300;45.034;38.910;2022-12-29T05:38:28;20.10;;;6.32;;
75687;SDS011;64300;45.034;38.910;2022-12-29T05:40:54;14.95;;;8.20;;
75687;SDS011;64300;45.034;38.910;2022-12-29T05:43:46;15.10;;;7.25;;
75687;SDS011;64300;45.034;38.910;2022-12-29T05:46:31;17.77;;;6.22;;
75687;SDS011;64300;45.034;38.910;2022-12-29T05:49:23;13.82;;;6.32;;
75687;SDS011;64300;45.034;38.910;2022-12-29T05:51:56;11.60;;;5.72;;
75687;SDS011;64300;45.034;38.910;2022-12-29T05:54:22;16.85;;;6.45;;
75687;SDS011;64300;45.034;38.910;2022-12-29T05:56:49;15.48;;;6.30;;
75687;SDS011;64300;45.034;38.910;2022-12-29T05:59:15;13.18;;;6.47;;
75687;SDS011;64300;45.034;38.910;2022-12-29T06:01:42;20.27;;;6.97;;
75687;SDS011;64300;45.034;38.910;2022-12-29T06:04:10;16.17;;;6.30;;
75687;SDS011;64300;45.034;38.910;2022-12-29T06:06:36;15.02;;;6.32;;
75687;SDS011;64300;45.034;38.910;2022-12-29T06:09:04;15.05;;;6.70;;
75687;SDS011;64300;45.034;38.910;2022-12-29T06:11:30;9.73;;;5.03;;
75687;SDS011;64300;45.034;38.910;2022-12-29T06:13:58;11.50;;;6.25;;
75687;SDS011;64300;45.034;38.910;2022-12-29T06:16:24;8.85;;;4.57;;
75687;SDS011;64300;45.034;38.910;2022-12-29T06:18:55;12.75;;;4.95;;
75687;SDS011;64300;45.034;38.910;2022-12-29T06:21:21;13.38;;;5.40;;
75687;SDS011;64300;45.034;38.910;2022-12-29T06:23:47;11.05;;;5.28;;
75687;SDS011;64300;45.034;38.910;2022-12-29T06:26:13;9.98;;;5.03;;
75687;SDS011;64300;45.034;38.910;2022-12-29T06:28:39;11.95;;;4.82;;
75687;SDS011;64300;45.034;38.910;2022-12-29T06:31:08;14.23;;;6.88;;
75687;SDS011;64300;45.034;38.910;2022-12-29T06:33:35;12.00;;;5.10;;
75687;SDS011;64300;45.034;38.910;2022-12-29T06:36:01;15.20;;;6.63;;
75687;SDS011;64300;45.034;38.910;2022-12-29T06:38:29;13.82;;;6.78;;
75687;SDS011;64300;45.034;38.910;2022-12-29T06:40:55;15.88;;;6.43;;
75687;SDS011;64300;45.034;38.910;2022-12-29T06:43:39;14.20;;;6.70;;
75687;SDS011;64300;45.034;38.910;2022-12-29T06:46:21;16.63;;;6.28;;
75687;SDS011;64300;45.034;38.910;2022-12-29T06:48:47;11.90;;;5.72;;
75687;SDS011;64300;45.034;38.910;2022-12-29T06:51:13;12.88;;;5.18;;
75687;SDS011;64300;45.034;38.910;2022-12-29T06:53:39;17.80;;;5.05;;
75687;SDS011;64300;45.034;38.910;2022-12-29T06:58:31;10.27;;;4.50;;
75687;SDS011;64300;45.034;38.910;2022-12-29T07:00:56;13.88;;;4.65;;
75687;SDS011;64300;45.034;38.910;2022-12-29T07:03:23;9.48;;;4.57;;
75687;SDS011;64300;45.034;38.910;2022-12-29T07:05:49;16.08;;;3.92;;
75687;SDS011;64300;45.034;38.910;2022-12-29T07:08:15;11.35;;;4.22;;
75687;SDS011;64300;45.034;38.910;2022-12-29T07:10:41;12.43;;;3.42;;
75687;SDS011;64300;45.034;38.910;2022-12-29T07:13:07;14.27;;;3.80;;
75687;SDS011;64300;45.034;38.910;2022-12-29T07:15:33;6.38;;;3.05;;
75687;SDS011;64300;45.034;38.910;2022-12-29T07:17:59;16.00;;;5.53;;
75687;SDS011;64300;45.034;38.910;2022-12-29T07:20:26;10.50;;;3.67;;
75687;SDS011;64300;45.034;38.910;2022-12-29T07:22:55;16.83;;;4.43;;
75687;SDS011;64300;45.034;38.910;2022-12-29T07:25:21;18.00;;;5.57;;
75687;SDS011;64300;45.034;38.910;2022-12-29T07:27:47;23.48;;;5.32;;
75687;SDS011;64300;45.034;38.910;2022-12-29T07:30:14;15.88;;;4.55;;
75687;SDS011;64300;45.034;38.910;2022-12-29T07:35:06;11.00;;;3.63;;
75687;SDS011;64300;45.034;38.910;2022-12-29T07:37:33;26.60;;;4.63;;
75687;SDS011;64300;45.034;38.910;2022-12-29T07:40:00;15.52;;;3.83;;
75687;SDS011;64300;45.034;38.910;2022-12-29T07:42:26;18.80;;;3.25;;
75687;SDS011;64300;45.034;38.910;2022-12-29T07:44:53;15.07;;;3.85;;
75687;SDS011;64300;45.034;38.910;2022-12-29T07:47:49;17.15;;;3.40;;
75687;SDS011;64300;45.034;38.910;2022-12-29T07:50:15;17.77;;;3.70;;
75687;SDS011;64300;45.034;38.910;2022-12-29T07:52:44;19.45;;;4.28;;
75687;SDS011;64300;45.034;38.910;2022-12-29T07:55:12;16.50;;;3.80;;
75687;SDS011;64300;45.034;38.910;2022-12-29T07:57:38;10.82;;;3.83;;
75687;SDS011;64300;45.034;38.910;2022-12-29T08:00:04;11.45;;;3.67;;
75687;SDS011;64300;45.034;38.910;2022-12-29T08:02:37;8.65;;;3.25;;
75687;SDS011;64300;45.034;38.910;2022-12-29T08:05:03;14.15;;;3.60;;
75687;SDS011;64300;45.034;38.910;2022-12-29T08:07:30;12.95;;;3.67;;
75687;SDS011;64300;45.034;38.910;2022-12-29T08:09:56;7.28;;;3.10;;
75687;SDS011;64300;45.034;38.910;2022-12-29T08:12:23;8.13;;;3.47;;
75687;SDS011;64300;45.034;38.910;2022-12-29T08:14:49;9.73;;;3.65;;
75687;SDS011;64300;45.034;38.910;2022-12-29T08:17:14;8.75;;;3.05;;
75687;SDS011;64300;45.034;38.910;2022-12-29T08:19:40;7.68;;;2.90;;
75687;SDS011;64300;45.034;38.910;2022-12-29T08:22:07;8.10;;;3.15;;
75687;SDS011;64300;45.034;38.910;2022-12-29T08:26:59;11.82;;;3.35;;
75687;SDS011;64300;45.034;38.910;2022-12-29T08:29:25;10.93;;;3.10;;
75687;SDS011;64300;45.034;38.910;2022-12-29T08:31:51;12.25;;;3.63;;
75687;SDS011;64300;45.034;38.910;2022-12-29T08:34:17;11.02;;;4.15;;
75687;SDS011;64300;45.034;38.910;2022-12-29T08:36:45;14.30;;;3.35;;
75687;SDS011;64300;45.034;38.910;2022-12-29T08:39:11;17.08;;;3.03;;
75687;SDS011;64300;45.034;38.910;2022-12-29T08:41:40;14.40;;;3.75;;
75687;SDS011;64300;45.034;38.910;2022-12-29T08:44:05;15.38;;;4.40;;
75687;SDS011;64300;45.034;38.910;2022-12-29T08:46:31;8.57;;;3.20;;
75687;SDS011;64300;45.034;38.910;2022-12-29T08:48:57;13.13;;;5.32;;
75687;SDS011;64300;45.034;38.910;2022-12-29T08:51:23;10.82;;;4.43;;
75687;SDS011;64300;45.034;38.910;2022-12-29T08:53:49;11.63;;;4.50;;
75687;SDS011;64300;45.034;38.910;2022-12-29T08:56:15;10.65;;;4.40;;
75687;SDS011;64300;45.034;38.910;2022-12-29T08:58:47;7.93;;;3.22;;
75687;SDS011;64300;45.034;38.910;2022-12-29T09:01:14;8.27;;;3.35;;
75687;SDS011;64300;45.034;38.910;2022-12-29T09:06:05;15.43;;;4.03;;
75687;SDS011;64300;45.034;38.910;2022-12-29T09:08:34;9.30;;;3.33;;
75687;SDS011;64300;45.034;38.910;2022-12-29T09:11:09;5.70;;;2.92;;
75687;SDS011;64300;45.034;38.910;2022-12-29T09:13:40;10.95;;;2.95;;
75687;SDS011;64300;45.034;38.910;2022-12-29T09:16:08;7.93;;;2.88;;
75687;SDS011;64300;45.034;38.910;2022-12-29T09:21:04;6.18;;;2.88;;
75687;SDS011;64300;45.034;38.910;2022-12-29T09:23:31;7.75;;;2.88;;
75687;SDS011;64300;45.034;38.910;2022-12-29T09:25:58;7.53;;;2.60;;
75687;SDS011;64300;45.034;38.910;2022-12-29T09:28:24;6.63;;;2.97;;
75687;SDS011;64300;45.034;38.910;2022-12-29T09:30:50;7.18;;;2.22;;
75687;SDS011;64300;45.034;38.910;2022-12-29T09:33:17;4.95;;;2.60;;
75687;SDS011;64300;45.034;38.910;2022-12-29T09:35:44;8.85;;;3.30;;
75687;SDS011;64300;45.034;38.910;2022-12-29T09:38:11;8.68;;;2.85;;
75687;SDS011;64300;45.034;38.910;2022-12-29T09:40:41;9.90;;;2.55;;
75687;SDS011;64300;45.034;38.910;2022-12-29T09:48:28;4.90;;;2.05;;
75687;SDS011;64300;45.034;38.910;2022-12-29T09:51:00;9.10;;;2.50;;
75687;SDS011;64300;45.034;38.910;2022-12-29T09:53:44;5.38;;;1.95;;
75687;SDS011;64300;45.034;38.910;2022-12-29T09:56:16;5.03;;;1.80;;
75687;SDS011;64300;45.034;38.910;2022-12-29T10:03:55;5.90;;;1.98;;
75687;SDS011;64300;45.034;38.910;2022-12-29T10:11:51;3.78;;;1.55;;
75687;SDS011;64300;45.034;38.910;2022-12-29T10:23:38;2.95;;;1.35;;
75687;SDS011;64300;45.034;38.910;2022-12-29T10:26:14;4.03;;;1.20;;
75687;SDS011;64300;45.034;38.910;2022-12-29T10:28:58;5.10;;;1.42;;
75687;SDS011;64300;45.034;38.910;2022-12-29T10:31:39;6.65;;;2.05;;
75687;SDS011;64300;45.034;38.910;2022-12-29T10:34:19;3.97;;;1.30;;
75687;SDS011;64300;45.034;38.910;2022-12-29T10:36:54;4.72;;;1.60;;
75687;SDS011;64300;45.034;38.910;2022-12-29T10:44:36;4.00;;;1.10;;
75687;SDS011;64300;45.034;38.910;2022-12-29T10:47:04;4.50;;;1.08;;
75687;SDS011;64300;45.034;38.910;2022-12-29T10:49:37;3.75;;;1.10;;
75687;SDS011;64300;45.034;38.910;2022-12-29T10:52:08;4.32;;;1.23;;
75687;SDS011;64300;45.034;38.910;2022-12-29T10:54:42;4.88;;;1.30;;
75687;SDS011;64300;45.034;38.910;2022-12-29T10:59:44;2.78;;;1.10;;
75687;SDS011;64300;45.034;38.910;2022-12-29T11:07:22;3.78;;;1.58;;
75687;SDS011;64300;45.034;38.910;2022-12-29T11:09:49;5.38;;;1.85;;
75687;SDS011;64300;45.034;38.910;2022-12-29T11:12:18;3.58;;;1.20;;
75687;SDS011;64300;45.034;38.910;2022-12-29T11:17:47;4.15;;;1.45;;
75687;SDS011;64300;45.034;38.910;2022-12-29T11:20:31;3.40;;;1.30;;
75687;SDS011;64300;45.034;38.910;2022-12-29T11:23:03;3.38;;;1.05;;
75687;SDS011;64300;45.034;38.910;2022-12-29T11:28:45;3.38;;;1.48;;
75687;SDS011;64300;45.034;38.910;2022-12-29T11:31:29;4.13;;;1.20;;
75687;SDS011;64300;45.034;38.910;2022-12-29T11:36:21;2.67;;;1.10;;
75687;SDS011;64300;45.034;38.910;2022-12-29T11:38:52;2.78;;;1.02;;
75687;SDS011;64300;45.034;38.910;2022-12-29T11:41:21;2.92;;;1.52;;
75687;SDS011;64300;45.034;38.910;2022-12-29T11:43:55;2.53;;;1.17;;
75687;SDS011;64300;45.034;38.910;2022-12-29T11:46:25;4.13;;;1.33;;
75687;SDS011;64300;45.034;38.910;2022-12-29T11:48:54;3.67;;;1.40;;
75687;SDS011;64300;45.034;38.910;2022-12-29T11:51:27;4.20;;;1.30;;
75687;SDS011;64300;45.034;38.910;2022-12-29T11:53:59;4.82;;;1.38;;
75687;SDS011;64300;45.034;38.910;2022-12-29T11:56:36;3.75;;;1.25;;
75687;SDS011;64300;45.034;38.910;2022-12-29T12:01:51;3.22;;;1.15;;
75687;SDS011;64300;45.034;38.910;2022-12-29T12:04:24;7.13;;;1.45;;
75687;SDS011;64300;45.034;38.910;2022-12-29T12:07:01;3.47;;;1.30;;
75687;SDS011;64300;45.034;38.910;2022-12-29T12:09:29;3.10;;;1.20;;
75687;SDS011;64300;45.034;38.910;2022-12-29T12:12:00;2.95;;;1.20;;
75687;SDS011;64300;45.034;38.910;2022-12-29T12:14:29;3.90;;;1.20;;
75687;SDS011;64300;45.034;38.910;2022-12-29T12:17:44;3.85;;;1.55;;
75687;SDS011;64300;45.034;38.910;2022-12-29T12:23:18;4.10;;;1.20;;
75687;SDS011;64300;45.034;38.910;2022-12-29T12:31:44;7.97;;;2.10;;
75687;SDS011;64300;45.034;38.910;2022-12-29T12:34:45;4.45;;;1.30;;
75687;SDS011;64300;45.034;38.910;2022-12-29T12:40:11;3.83;;;1.10;;
75687;SDS011;64300;45.034;38.910;2022-12-29T12:48:48;3.50;;;1.40;;
75687;SDS011;64300;45.034;38.910;2022-12-29T12:59:38;5.50;;;1.42;;
75687;SDS011;64300;45.034;38.910;2022-12-29T13:11:08;2.50;;;1.10;;
75687;SDS011;64300;45.034;38.910;2022-12-29T13:16:14;3.58;;;1.30;;
75687;SDS011;64300;45.034;38.910;2022-12-29T13:24:15;3.22;;;1.27;;
75687;SDS011;64300;45.034;38.910;2022-12-29T13:26:50;4.45;;;1.33;;
75687;SDS011;64300;45.034;38.910;2022-12-29T13:32:29;7.18;;;1.52;;
75687;SDS011;64300;45.034;38.910;2022-12-29T13:37:58;4.43;;;1.80;;
75687;SDS011;64300;45.034;38.910;2022-12-29T13:40:26;4.75;;;1.60;;
75687;SDS011;64300;45.034;38.910;2022-12-29T13:42:59;5.22;;;1.85;;
75687;SDS011;64300;45.034;38.910;2022-12-29T13:45:26;4.50;;;1.92;;
75687;SDS011;64300;45.034;38.910;2022-12-29T13:50:45;5.38;;;1.90;;
75687;SDS011;64300;45.034;38.910;2022-12-29T13:53:37;11.50;;;2.30;;
75687;SDS011;64300;45.034;38.910;2022-12-29T14:01:59;5.05;;;2.50;;
75687;SDS011;64300;45.034;38.910;2022-12-29T14:05:03;10.10;;;2.47;;
75687;SDS011;64300;45.034;38.910;2022-12-29T14:08:01;7.35;;;2.72;;
75687;SDS011;64300;45.034;38.910;2022-12-29T14:13:33;5.28;;;2.58;;
75687;SDS011;64300;45.034;38.910;2022-12-29T14:15:53;10.15;;;2.97;;
75687;SDS011;64300;45.034;38.910;2022-12-29T14:18:23;9.52;;;2.75;;
75687;SDS011;64300;45.034;38.910;2022-12-29T14:20:56;10.93;;;3.05;;
75687;SDS011;64300;45.034;38.910;2022-12-29T14:28:40;8.55;;;3.40;;
75687;SDS011;64300;45.034;38.910;2022-12-29T14:33:41;13.95;;;3.97;;
75687;SDS011;64300;45.034;38.910;2022-12-29T14:41:59;17.52;;;4.20;;
75687;SDS011;64300;45.034;38.910;2022-12-29T14:44:27;10.40;;;3.38;;
75687;SDS011;64300;45.034;38.910;2022-12-29T14:49:22;12.07;;;4.00;;
75687;SDS011;64300;45.034;38.910;2022-12-29T14:51:51;10.60;;;3.10;;
75687;SDS011;64300;45.034;38.910;2022-12-29T14:57:05;8.32;;;3.40;;
75687;SDS011;64300;45.034;38.910;2022-12-29T14:59:33;16.60;;;3.85;;
75687;SDS011;64300;45.034;38.910;2022-12-29T15:02:01;12.45;;;4.35;;
75687;SDS011;64300;45.034;38.910;2022-12-29T15:04:36;10.82;;;2.83;;
75687;SDS011;64300;45.034;38.910;2022-12-29T15:07:02;6.60;;;2.03;;
75687;SDS011;64300;45.034;38.910;2022-12-29T15:09:35;11.70;;;2.40;;
75687;SDS011;64300;45.034;38.910;2022-12-29T15:14:47;7.05;;;1.63;;
75687;SDS011;64300;45.034;38.910;2022-12-29T15:17:32;4.63;;;2.13;;
75687;SDS011;64300;45.034;38.910;2022-12-29T15:20:01;7.65;;;1.90;;
75687;SDS011;64300;45.034;38.910;2022-12-29T15:22:45;5.40;;;1.95;;
75687;SDS011;64300;45.034;38.910;2022-12-29T15:25:17;7.40;;;1.77;;
75687;SDS011;64300;45.034;38.910;2022-12-29T15:27:48;9.73;;;2.03;;
75687;SDS011;64300;45.034;38.910;2022-12-29T15:30:19;8.43;;;1.90;;
75687;SDS011;64300;45.034;38.910;2022-12-29T15:32:45;7.63;;;2.20;;
75687;SDS011;64300;45.034;38.910;2022-12-29T15:37:53;6.13;;;2.45;;
75687;SDS011;64300;45.034;38.910;2022-12-29T15:40:24;21.48;;;3.67;;
75687;SDS011;64300;45.034;38.910;2022-12-29T15:45:43;8.60;;;2.33;;
75687;SDS011;64300;45.034;38.910;2022-12-29T15:48:17;5.20;;;2.20;;
75687;SDS011;64300;45.034;38.910;2022-12-29T15:50:46;14.45;;;3.20;;
75687;SDS011;64300;45.034;38.910;2022-12-29T15:53:18;11.98;;;2.58;;
75687;SDS011;64300;45.034;38.910;2022-12-29T15:55:51;6.50;;;2.70;;
75687;SDS011;64300;45.034;38.910;2022-12-29T15:58:21;4.20;;;2.15;;
75687;SDS011;64300;45.034;38.910;2022-12-29T16:00:52;5.18;;;2.38;;
75687;SDS011;64300;45.034;38.910;2022-12-29T16:03:27;7.60;;;2.78;;
75687;SDS011;64300;45.034;38.910;2022-12-29T16:06:08;6.22;;;2.38;;
75687;SDS011;64300;45.034;38.910;2022-12-29T16:08:37;8.60;;;1.92;;
75687;SDS011;64300;45.034;38.910;2022-12-29T16:11:18;7.15;;;2.10;;
75687;SDS011;64300;45.034;38.910;2022-12-29T16:13:48;11.88;;;2.50;;
75687;SDS011;64300;45.034;38.910;2022-12-29T16:16:19;8.02;;;2.08;;
75687;SDS011;64300;45.034;38.910;2022-12-29T16:18:57;5.10;;;2.10;;
75687;SDS011;64300;45.034;38.910;2022-12-29T16:21:26;6.68;;;2.65;;
75687;SDS011;64300;45.034;38.910;2022-12-29T16:23:56;5.00;;;1.63;;
75687;SDS011;64300;45.034;38.910;2022-12-29T16:26:26;7.45;;;2.53;;
75687;SDS011;64300;45.034;38.910;2022-12-29T16:28:56;5.32;;;2.25;;
75687;SDS011;64300;45.034;38.910;2022-12-29T16:31:31;7.18;;;2.03;;
75687;SDS011;64300;45.034;38.910;2022-12-29T16:33:58;8.40;;;3.10;;
75687;SDS011;64300;45.034;38.910;2022-12-29T16:36:51;7.45;;;2.13;;
75687;SDS011;64300;45.034;38.910;2022-12-29T16:42:32;4.13;;;1.88;;
75687;SDS011;64300;45.034;38.910;2022-12-29T16:45:54;9.05;;;1.80;;
75687;SDS011;64300;45.034;38.910;2022-12-29T16:48:16;3.78;;;1.70;;
75687;SDS011;64300;45.034;38.910;2022-12-29T16:51:18;6.57;;;1.70;;
75687;SDS011;64300;45.034;38.910;2022-12-29T16:53:55;4.95;;;2.00;;
75687;SDS011;64300;45.034;38.910;2022-12-29T16:56:22;9.38;;;2.72;;
75687;SDS011;64300;45.034;38.910;2022-12-29T16:59:28;5.65;;;2.10;;
75687;SDS011;64300;45.034;38.910;2022-12-29T17:01:54;5.22;;;1.90;;
75687;SDS011;64300;45.034;38.910;2022-12-29T17:04:21;4.70;;;1.83;;
75687;SDS011;64300;45.034;38.910;2022-12-29T17:06:47;13.27;;;1.98;;
75687;SDS011;64300;45.034;38.910;2022-12-29T17:09:16;3.85;;;1.40;;
75687;SDS011;64300;45.034;38.910;2022-12-29T17:11:57;6.53;;;1.40;;
75687;SDS011;64300;45.034;38.910;2022-12-29T17:14:44;5.90;;;1.75;;
75687;SDS011;64300;45.034;38.910;2022-12-29T17:17:43;4.95;;;2.60;;
75687;SDS011;64300;45.034;38.910;2022-12-29T17:22:44;9.43;;;2.58;;
75687;SDS011;64300;45.034;38.910;2022-12-29T17:25:13;5.70;;;1.70;;
75687;SDS011;64300;45.034;38.910;2022-12-29T17:30:15;5.88;;;1.98;;
75687;SDS011;64300;45.034;38.910;2022-12-29T17:32:45;5.82;;;1.63;;
75687;SDS011;64300;45.034;38.910;2022-12-29T17:38:01;5.85;;;1.80;;
75687;SDS011;64300;45.034;38.910;2022-12-29T17:40:27;5.07;;;1.80;;
75687;SDS011;64300;45.034;38.910;2022-12-29T17:42:56;6.57;;;2.53;;
75687;SDS011;64300;45.034;38.910;2022-12-29T17:45:29;8.35;;;1.95;;
75687;SDS011;64300;45.034;38.910;2022-12-29T17:47:57;4.60;;;1.40;;
75687;SDS011;64300;45.034;38.910;2022-12-29T17:50:27;5.32;;;2.15;;
75687;SDS011;64300;45.034;38.910;2022-12-29T17:52:56;5.43;;;1.75;;
75687;SDS011;64300;45.034;38.910;2022-12-29T17:55:24;8.95;;;1.65;;
75687;SDS011;64300;45.034;38.910;2022-12-29T17:57:50;8.77;;;2.70;;
75687;SDS011;64300;45.034;38.910;2022-12-29T18:00:23;7.25;;;2.00;;
75687;SDS011;64300;45.034;38.910;2022-12-29T18:02:56;7.40;;;2.10;;
75687;SDS011;64300;45.034;38.910;2022-12-29T18:05:27;4.05;;;1.75;;
75687;SDS011;64300;45.034;38.910;2022-12-29T18:07:56;5.10;;;1.30;;
75687;SDS011;64300;45.034;38.910;2022-12-29T18:10:23;5.50;;;1.50;;
75687;SDS011;64300;45.034;38.910;2022-12-29T18:12:55;3.97;;;1.45;;
75687;SDS011;64300;45.034;38.910;2022-12-29T18:15:25;4.65;;;1.70;;
75687;SDS011;64300;45.034;38.910;2022-12-29T18:20:38;6.00;;;1.60;;
75687;SDS011;64300;45.034;38.910;2022-12-29T18:23:05;7.43;;;1.58;;
75687;SDS011;64300;45.034;38.910;2022-12-29T18:28:04;4.28;;;1.60;;